SDG096 LICT-DTTA
Flight info
| Callsign | SDG096 |
|---|---|
| Flight time | N/A |
| Altitude | 21000 |
| Route | MEGAN L869 CBN G727 DIDON |
| Aircraft | A321/M-SDE3FGHIRWY/C |
Departure
| Time | 2026-05-08 17:37 |
|---|---|
| Airport | Vincenzo Florio Airport Trapani-Birgi (LICT) |
Arrival
| Time | N/A |
|---|---|
| Airport | Tunis Carthage International Airport (DTTA) |
| Time | Latitude | Longitude | Altitude | Speed | Heading |
|---|---|---|---|---|---|
| 2026-05-08 17:30 | 37.90204 | 12.49714 | 36 ft | 0 kts | 278° |
| 2026-05-08 17:32 | 37.90230 | 12.49691 | 36 ft | 10 kts | 355° |
| 2026-05-08 17:32 | 37.90297 | 12.49719 | 36 ft | 1 kts | 30° |
| 2026-05-08 17:32 | 37.90307 | 12.49726 | 36 ft | 2 kts | 29° |
| 2026-05-08 17:32 | 37.90323 | 12.49737 | 37 ft | 3 kts | 27° |
| 2026-05-08 17:33 | 37.90346 | 12.49742 | 37 ft | 4 kts | 335° |
| 2026-05-08 17:33 | 37.90375 | 12.49703 | 36 ft | 7 kts | 304° |
| 2026-05-08 17:33 | 37.90423 | 12.49670 | 35 ft | 9 kts | 22° |
| 2026-05-08 17:33 | 37.90427 | 12.49672 | 35 ft | 0 kts | 22° |
| 2026-05-08 17:35 | 37.90449 | 12.49687 | 36 ft | 8 kts | 32° |
| 2026-05-08 17:35 | 37.90499 | 12.49733 | 37 ft | 9 kts | 39° |
| 2026-05-08 17:35 | 37.90558 | 12.49733 | 36 ft | 10 kts | 327° |
| 2026-05-08 17:36 | 37.90610 | 12.49656 | 35 ft | 13 kts | 308° |
| 2026-05-08 17:36 | 37.90756 | 12.49429 | 32 ft | 74 kts | 310° |
| 2026-05-08 17:36 | 37.91256 | 12.48592 | 26 ft | 160 kts | 310° |
| 2026-05-08 17:36 | 37.92074 | 12.47315 | 388 ft | 204 kts | 309° |
| 2026-05-08 17:37 | 37.93019 | 12.46068 | 1648 ft | 206 kts | 330° |
| 2026-05-08 17:37 | 37.94350 | 12.45615 | 2682 ft | 200 kts | 355° |
| 2026-05-08 17:37 | 37.95772 | 12.45495 | 3191 ft | 214 kts | 354° |
| 2026-05-08 17:37 | 37.97289 | 12.45317 | 3660 ft | 230 kts | 352° |
| 2026-05-08 17:38 | 37.98940 | 12.45040 | 4137 ft | 246 kts | 343° |
| 2026-05-08 17:38 | 38.00521 | 12.44156 | 4605 ft | 260 kts | 329° |
| 2026-05-08 17:38 | 38.02114 | 12.43009 | 5293 ft | 268 kts | 328° |
| 2026-05-08 17:38 | 38.03739 | 12.41875 | 6115 ft | 270 kts | 329° |
| 2026-05-08 17:39 | 38.05382 | 12.40760 | 6908 ft | 272 kts | 328° |
| 2026-05-08 17:39 | 38.07055 | 12.39628 | 7700 ft | 274 kts | 328° |
| 2026-05-08 17:39 | 38.08729 | 12.38459 | 8484 ft | 275 kts | 322° |
| 2026-05-08 17:39 | 38.09967 | 12.36738 | 9174 ft | 268 kts | 290° |
| 2026-05-08 17:40 | 38.10321 | 12.34463 | 9970 ft | 264 kts | 267° |
| 2026-05-08 17:40 | 38.09928 | 12.32208 | 10628 ft | 270 kts | 247° |
| 2026-05-08 17:40 | 38.08782 | 12.30247 | 10953 ft | 292 kts | 224° |
| 2026-05-08 17:40 | 38.06893 | 12.29011 | 11267 ft | 319 kts | 201° |
| 2026-05-08 17:41 | 38.04730 | 12.28121 | 11586 ft | 332 kts | 208° |
| 2026-05-08 17:41 | 38.02590 | 12.26850 | 11888 ft | 346 kts | 211° |
| 2026-05-08 17:41 | 38.00377 | 12.25490 | 12169 ft | 362 kts | 211° |
| 2026-05-08 17:41 | 37.98075 | 12.24116 | 12442 ft | 378 kts | 210° |
| 2026-05-08 17:42 | 37.95629 | 12.22698 | 12771 ft | 392 kts | 209° |
| 2026-05-08 17:42 | 37.93131 | 12.21283 | 13396 ft | 396 kts | 209° |
| 2026-05-08 17:42 | 37.90615 | 12.19877 | 14109 ft | 398 kts | 209° |
| 2026-05-08 17:42 | 37.88182 | 12.18529 | 14712 ft | 402 kts | 209° |
| 2026-05-08 17:43 | 37.85589 | 12.17102 | 15328 ft | 405 kts | 209° |
| 2026-05-08 17:43 | 37.83019 | 12.15688 | 15924 ft | 408 kts | 209° |
| 2026-05-08 17:43 | 37.80425 | 12.14260 | 16499 ft | 412 kts | 210° |
| 2026-05-08 17:43 | 37.77807 | 12.12818 | 17078 ft | 415 kts | 210° |
| 2026-05-08 17:44 | 37.75148 | 12.11354 | 17633 ft | 418 kts | 210° |
| 2026-05-08 17:44 | 37.72493 | 12.09892 | 18166 ft | 421 kts | 210° |
| 2026-05-08 17:44 | 37.69802 | 12.08411 | 18695 ft | 424 kts | 210° |
| 2026-05-08 17:44 | 37.67097 | 12.06922 | 19194 ft | 427 kts | 210° |
| 2026-05-08 17:45 | 37.64383 | 12.05432 | 19658 ft | 430 kts | 210° |
| 2026-05-08 17:45 | 37.61609 | 12.03911 | 20126 ft | 434 kts | 210° |
| 2026-05-08 17:45 | 37.58853 | 12.02399 | 20590 ft | 436 kts | 210° |
| 2026-05-08 17:45 | 37.56148 | 12.00736 | 20947 ft | 434 kts | 216° |
| 2026-05-08 17:46 | 37.53646 | 11.98638 | 20999 ft | 428 kts | 223° |
| 2026-05-08 17:46 | 37.51449 | 11.96193 | 21009 ft | 421 kts | 230° |
| 2026-05-08 17:46 | 37.49453 | 11.93454 | 21012 ft | 419 kts | 233° |
| 2026-05-08 17:46 | 37.47543 | 11.90728 | 21012 ft | 419 kts | 233° |
| 2026-05-08 17:47 | 37.45638 | 11.87995 | 21011 ft | 419 kts | 233° |
| 2026-05-08 17:47 | 37.43694 | 11.85211 | 21012 ft | 419 kts | 233° |
| 2026-05-08 17:47 | 37.41770 | 11.82462 | 21011 ft | 420 kts | 233° |
| 2026-05-08 17:47 | 37.40502 | 11.80653 | 21011 ft | 420 kts | 233° |
| 2026-05-08 17:48 | 37.37921 | 11.76976 | 21012 ft | 419 kts | 233° |
| 2026-05-08 17:48 | 37.35989 | 11.74227 | 21012 ft | 420 kts | 233° |
| 2026-05-08 17:48 | 37.34054 | 11.71480 | 21011 ft | 420 kts | 233° |
| 2026-05-08 17:48 | 37.32140 | 11.68764 | 21011 ft | 420 kts | 233° |
| 2026-05-08 17:49 | 37.30199 | 11.66014 | 21011 ft | 420 kts | 233° |
| 2026-05-08 17:49 | 37.28261 | 11.63268 | 21011 ft | 420 kts | 233° |
| 2026-05-08 17:49 | 37.26334 | 11.60540 | 21011 ft | 420 kts | 233° |
| 2026-05-08 17:49 | 37.24404 | 11.57811 | 21011 ft | 420 kts | 233° |
| 2026-05-08 17:50 | 37.22455 | 11.55057 | 21013 ft | 420 kts | 233° |
| 2026-05-08 17:50 | 37.20521 | 11.52328 | 21015 ft | 420 kts | 233° |
| 2026-05-08 17:50 | 37.18587 | 11.49599 | 21018 ft | 421 kts | 233° |
| 2026-05-08 17:50 | 37.16642 | 11.46860 | 20996 ft | 420 kts | 233° |
| 2026-05-08 17:51 | 37.14694 | 11.44120 | 20737 ft | 419 kts | 233° |
| 2026-05-08 17:51 | 37.12803 | 11.41462 | 20486 ft | 406 kts | 233° |
| 2026-05-08 17:51 | 37.10950 | 11.38866 | 20231 ft | 388 kts | 233° |
| 2026-05-08 17:51 | 37.09215 | 11.36440 | 19979 ft | 367 kts | 233° |
| 2026-05-08 17:52 | 37.07548 | 11.34106 | 19728 ft | 348 kts | 233° |
| 2026-05-08 17:52 | 37.05985 | 11.31906 | 19475 ft | 331 kts | 233° |
| 2026-05-08 17:52 | 37.03079 | 11.27821 | 18976 ft | 302 kts | 233° |
| 2026-05-08 17:53 | 37.01706 | 11.25893 | 18719 ft | 291 kts | 233° |
| 2026-05-08 17:53 | 37.00361 | 11.24003 | 18470 ft | 291 kts | 233° |
| 2026-05-08 17:53 | 36.99025 | 11.22132 | 18219 ft | 283 kts | 233° |
| 2026-05-08 17:53 | 36.97752 | 11.20359 | 17970 ft | 271 kts | 233° |
| 2026-05-08 17:54 | 36.96510 | 11.18629 | 17716 ft | 260 kts | 233° |
| 2026-05-08 17:54 | 36.95330 | 11.16982 | 17468 ft | 253 kts | 233° |
| 2026-05-08 17:54 | 36.94179 | 11.15374 | 17226 ft | 248 kts | 233° |
| 2026-05-08 17:54 | 36.93037 | 11.13779 | 17039 ft | 240 kts | 233° |
| 2026-05-08 17:55 | 36.91914 | 11.12290 | 17039 ft | 234 kts | 230° |
| 2026-05-08 17:55 | 36.90688 | 11.10960 | 17040 ft | 238 kts | 224° |
| 2026-05-08 17:55 | 36.89302 | 11.09762 | 17037 ft | 241 kts | 218° |
| 2026-05-08 17:55 | 36.87812 | 11.08766 | 17036 ft | 245 kts | 212° |
| 2026-05-08 17:56 | 36.86234 | 11.07977 | 17035 ft | 249 kts | 206° |
| 2026-05-08 17:56 | 36.84560 | 11.07388 | 17036 ft | 252 kts | 202° |
| 2026-05-08 17:56 | 36.82844 | 11.06864 | 17035 ft | 252 kts | 202° |
| 2026-05-08 17:56 | 36.81153 | 11.06348 | 17036 ft | 253 kts | 202° |
| 2026-05-08 17:57 | 36.79440 | 11.05826 | 17035 ft | 252 kts | 202° |
| 2026-05-08 17:57 | 36.77758 | 11.05277 | 17032 ft | 249 kts | 207° |
| 2026-05-08 17:57 | 36.76200 | 11.04406 | 17036 ft | 242 kts | 218° |
| 2026-05-08 17:57 | 36.74848 | 11.03200 | 17034 ft | 236 kts | 228° |
| 2026-05-08 17:58 | 36.73747 | 11.01762 | 16881 ft | 227 kts | 237° |
| 2026-05-08 17:58 | 36.72899 | 11.00141 | 16503 ft | 225 kts | 246° |
| 2026-05-08 17:58 | 36.72297 | 10.98340 | 16132 ft | 224 kts | 255° |
| 2026-05-08 17:58 | 36.71964 | 10.96448 | 15796 ft | 222 kts | 264° |
| 2026-05-08 17:59 | 36.71905 | 10.94543 | 15459 ft | 221 kts | 272° |
| 2026-05-08 17:59 | 36.72082 | 10.92647 | 15130 ft | 221 kts | 276° |
| 2026-05-08 17:59 | 36.72314 | 10.90756 | 14794 ft | 221 kts | 276° |
| 2026-05-08 17:59 | 36.72544 | 10.88879 | 14466 ft | 220 kts | 276° |
| 2026-05-08 18:00 | 36.72776 | 10.86996 | 14136 ft | 219 kts | 276° |
| 2026-05-08 18:00 | 36.73237 | 10.83280 | 13477 ft | 210 kts | 276° |
| 2026-05-08 18:00 | 36.73450 | 10.81584 | 13232 ft | 193 kts | 276° |
| 2026-05-08 18:01 | 36.73650 | 10.79987 | 12940 ft | 179 kts | 276° |
| 2026-05-08 18:01 | 36.73836 | 10.78478 | 12527 ft | 174 kts | 276° |
| 2026-05-08 18:01 | 36.74018 | 10.77008 | 12034 ft | 172 kts | 276° |
| 2026-05-08 18:01 | 36.74195 | 10.75563 | 11583 ft | 167 kts | 276° |
| 2026-05-08 18:02 | 36.74369 | 10.74146 | 11080 ft | 167 kts | 276° |
| 2026-05-08 18:02 | 36.74484 | 10.73208 | 10756 ft | 166 kts | 276° |
| 2026-05-08 18:02 | 36.74714 | 10.71342 | 10136 ft | 163 kts | 276° |
| 2026-05-08 18:02 | 36.74885 | 10.69954 | 9679 ft | 161 kts | 276° |
| 2026-05-08 18:03 | 36.75053 | 10.68588 | 9231 ft | 159 kts | 276° |
| 2026-05-08 18:03 | 36.75219 | 10.67243 | 8795 ft | 158 kts | 276° |
| 2026-05-08 18:03 | 36.75404 | 10.65908 | 8362 ft | 156 kts | 279° |
| 2026-05-08 18:03 | 36.75615 | 10.64589 | 7934 ft | 155 kts | 279° |
| 2026-05-08 18:04 | 36.75819 | 10.63296 | 7515 ft | 153 kts | 279° |
| 2026-05-08 18:04 | 36.76022 | 10.62005 | 7094 ft | 152 kts | 279° |
| 2026-05-08 18:04 | 36.76223 | 10.60723 | 6678 ft | 151 kts | 279° |
| 2026-05-08 18:04 | 36.76422 | 10.59452 | 6265 ft | 150 kts | 279° |
| 2026-05-08 18:05 | 36.76621 | 10.58178 | 5848 ft | 149 kts | 279° |
| 2026-05-08 18:05 | 36.76819 | 10.56905 | 5422 ft | 149 kts | 280° |
| 2026-05-08 18:05 | 36.77016 | 10.55637 | 4971 ft | 152 kts | 281° |